Time;durP1;ratioP1;P1;durP2;ratioP2;P2;SDS_P1;SDS_P2;PMS_P1;PMS_P2;Temp;Humidity;BMP_temperature;BMP_pressure;BME280_temperature;BME280_humidity;BME280_pressure;Samples;Min_cycle;Max_cycle;Signal;HPM_P1;HPM_P2
2022/04/17 00:00:30;;;;;;;29.83;23.13;;;6.50;99.90;;;;;;5074198;28;20036;-55
2022/04/17 00:02:56;;;;;;;31.63;23.17;;;6.50;99.90;;;;;;5074078;28;20087;-55
2022/04/17 00:05:22;;;;;;;33.53;23.35;;;6.50;99.90;;;;;;5074192;28;20081;-55
2022/04/17 00:07:48;;;;;;;31.63;23.30;;;6.50;99.90;;;;;;5073900;28;20048;-55
2022/04/17 00:10:13;;;;;;;31.00;23.38;;;6.40;99.90;;;;;;5074144;28;20076;-55
2022/04/17 00:12:40;;;;;;;30.02;23.67;;;6.40;99.90;;;;;;5074077;28;20366;-55
2022/04/17 00:15:07;;;;;;;29.27;20.95;;;6.30;99.90;;;;;;5072853;28;20072;-55
2022/04/17 00:17:33;;;;;;;31.80;23.13;;;6.30;99.90;;;;;;5073829;28;20036;-56
2022/04/17 00:19:59;;;;;;;30.38;22.85;;;6.30;99.90;;;;;;5073795;28;20036;-55
2022/04/17 00:22:25;;;;;;;30.00;22.70;;;6.30;99.90;;;;;;5072593;28;20068;-55
2022/04/17 00:24:52;;;;;;;29.33;22.50;;;6.20;99.90;;;;;;5053680;28;20087;-56
2022/04/17 00:27:18;;;;;;;29.00;22.25;;;6.10;99.90;;;;;;5053736;28;20406;-55
2022/04/17 00:29:44;;;;;;;33.60;22.98;;;6.00;99.90;;;;;;5053698;28;20037;-56
2022/04/17 00:32:11;;;;;;;30.48;23.42;;;5.90;99.90;;;;;;5053527;28;20652;-56
2022/04/17 00:34:37;;;;;;;32.42;23.48;;;6.00;99.90;;;;;;5052683;28;20033;-56
2022/04/17 00:37:06;;;;;;;32.08;26.50;;;5.80;99.90;;;;;;5053259;28;20053;-56
2022/04/17 00:39:32;;;;;;;36.35;29.38;;;5.80;99.90;;;;;;5053450;28;20440;-56
2022/04/17 00:42:00;;;;;;;37.63;31.05;;;5.80;99.90;;;;;;5053406;28;20045;-56
2022/04/17 00:44:26;;;;;;;41.92;32.35;;;5.90;99.90;;;;;;5068455;28;20041;-56
2022/04/17 00:46:52;;;;;;;41.80;31.92;;;5.80;99.90;;;;;;5053261;28;20044;-56
2022/04/17 00:49:18;;;;;;;43.15;35.95;;;5.80;99.90;;;;;;5053176;28;20076;-56
2022/04/17 00:51:46;;;;;;;45.20;36.00;;;5.80;99.90;;;;;;5056179;28;20086;-56
2022/04/17 00:54:14;;;;;;;46.63;38.40;;;5.80;99.90;;;;;;5072115;28;20388;-56
2022/04/17 00:56:41;;;;;;;48.50;37.20;;;5.80;99.90;;;;;;5073096;28;20049;-56
2022/04/17 00:59:09;;;;;;;47.30;34.72;;;5.80;99.90;;;;;;5072008;28;20040;-55
2022/04/17 01:01:36;;;;;;;43.38;33.95;;;5.80;99.90;;;;;;5073008;28;20048;-56
2022/04/17 01:04:03;;;;;;;47.47;39.50;;;5.70;99.90;;;;;;5071649;28;20047;-56
2022/04/17 01:06:30;;;;;;;49.97;36.67;;;5.70;99.90;;;;;;5073121;28;20048;-57
2022/04/17 01:08:57;;;;;;;47.03;36.65;;;5.60;99.90;;;;;;5073068;28;20090;-56
2022/04/17 01:11:23;;;;;;;52.25;41.38;;;5.70;99.90;;;;;;5071458;28;20048;-56
2022/04/17 01:13:49;;;;;;;53.90;40.85;;;5.60;99.90;;;;;;5071650;28;20123;-56
2022/04/17 01:16:18;;;;;;;52.47;43.55;;;5.60;99.90;;;;;;5072644;28;20032;-56
2022/04/17 01:19:02;;;;;;;58.67;47.08;;;5.60;99.90;;;;;;5072837;28;20036;-56
2022/04/17 01:21:29;;;;;;;64.20;49.40;;;5.60;99.90;;;;;;5072500;28;20080;-55
2022/04/17 01:26:57;;;;;;;67.45;50.15;;;5.60;99.90;;;;;;5052349;28;20110;-54
2022/04/17 01:29:30;;;;;;;62.70;49.60;;;5.50;99.90;;;;;;5052437;28;20043;-56
2022/04/17 01:31:56;;;;;;;65.93;52.50;;;5.50;99.90;;;;;;5067790;28;20098;-54
2022/04/17 01:34:22;;;;;;;65.90;52.08;;;5.50;99.90;;;;;;5052473;28;20040;-55
2022/04/17 01:36:49;;;;;;;67.00;53.15;;;5.50;99.90;;;;;;5052128;28;20057;-55
2022/04/17 01:39:16;;;;;;;61.72;51.75;;;5.50;99.90;;;;;;5052250;28;20044;-56
2022/04/17 01:41:41;;;;;;;67.70;52.55;;;5.50;99.90;;;;;;5067970;28;20044;-55
2022/04/17 01:44:08;;;;;;;65.10;50.60;;;5.40;99.90;;;;;;5052674;28;20064;-56
2022/04/17 01:46:34;;;;;;;63.17;52.03;;;5.40;99.90;;;;;;5052402;28;20102;-56
2022/04/17 01:49:00;;;;;;;60.25;49.83;;;5.40;99.90;;;;;;5052278;28;20404;-56
2022/04/17 01:51:26;;;;;;;56.55;46.72;;;5.30;99.90;;;;;;5052746;28;20123;-56
2022/04/17 01:53:52;;;;;;;61.85;49.55;;;5.30;99.90;;;;;;5072106;28;20040;-56
2022/04/17 01:56:17;;;;;;;55.90;45.70;;;5.30;99.90;;;;;;5072433;28;20036;-55
2022/04/17 01:58:44;;;;;;;55.90;44.83;;;5.30;99.90;;;;;;5072385;28;20044;-55
2022/04/17 02:01:10;;;;;;;56.50;45.78;;;5.30;99.90;;;;;;5072163;28;20048;-56
2022/04/17 02:03:35;;;;;;;54.10;43.55;;;5.30;99.90;;;;;;5070977;28;20036;-56
2022/04/17 02:06:01;;;;;;;56.28;45.33;;;5.30;99.90;;;;;;5072097;28;20514;-54
2022/04/17 02:08:31;;;;;;;51.78;41.50;;;5.30;99.90;;;;;;5071999;28;20041;-55
2022/04/17 02:10:57;;;;;;;51.25;41.80;;;5.30;99.90;;;;;;5072010;28;20040;-56
2022/04/17 02:13:27;;;;;;;50.90;41.20;;;5.40;99.90;;;;;;5072212;28;20040;-55
2022/04/17 02:15:53;;;;;;;54.58;41.92;;;5.40;99.90;;;;;;5072080;28;20108;-56
2022/04/17 02:18:25;;;;;;;54.08;42.58;;;5.40;99.90;;;;;;5071972;28;20047;-55
2022/04/17 02:20:53;;;;;;;54.47;42.38;;;5.40;99.90;;;;;;5070798;28;20048;-56
2022/04/17 02:23:18;;;;;;;49.42;40.97;;;5.40;99.90;;;;;;5063668;28;20401;-55
2022/04/17 02:25:44;;;;;;;52.72;41.85;;;5.40;99.90;;;;;;5084247;28;20049;-56
2022/04/17 02:28:10;;;;;;;55.67;41.25;;;5.40;99.90;;;;;;5051946;28;20049;-56
2022/04/17 02:30:36;;;;;;;49.33;39.33;;;5.40;99.90;;;;;;5051645;28;20052;-55
2022/04/17 02:33:02;;;;;;;50.20;40.80;;;5.30;99.90;;;;;;5067159;28;20128;-56
2022/04/17 02:35:29;;;;;;;54.92;40.13;;;5.30;99.90;;;;;;5051561;28;20067;-56
2022/04/17 02:37:54;;;;;;;47.50;37.38;;;5.30;99.90;;;;;;5051556;28;20529;-56
2022/04/17 02:40:20;;;;;;;45.22;36.60;;;5.30;99.90;;;;;;5051578;28;20171;-56
2022/04/17 02:42:47;;;;;;;48.28;37.55;;;5.30;99.90;;;;;;5051855;28;20045;-56
2022/04/17 02:45:12;;;;;;;47.10;37.47;;;5.30;99.90;;;;;;5050527;28;20084;-56
2022/04/17 02:47:44;;;;;;;43.83;33.88;;;5.30;99.90;;;;;;5051644;28;20500;-56
2022/04/17 02:50:15;;;;;;;42.33;32.13;;;5.20;99.90;;;;;;5051440;28;20044;-56
2022/04/17 02:52:41;;;;;;;40.10;30.42;;;5.20;99.90;;;;;;5062616;28;20036;-57
2022/04/17 02:55:08;;;;;;;38.10;30.05;;;5.20;99.90;;;;;;5070313;28;20040;-57
2022/04/17 02:57:34;;;;;;;36.58;29.52;;;5.20;99.90;;;;;;5070379;28;20483;-57
2022/04/17 03:00:00;;;;;;;40.53;30.23;;;5.20;99.90;;;;;;5075505;28;20035;-57
2022/04/17 03:07:55;;;;;;;37.80;27.73;;;5.20;99.90;;;;;;5075378;28;20051;-58
2022/04/17 03:10:21;;;;;;;32.90;27.05;;;5.20;99.90;;;;;;5074959;28;20076;-57
2022/04/17 03:12:47;;;;;;;35.55;27.38;;;5.10;99.90;;;;;;5075219;28;20095;-57
2022/04/17 03:15:13;;;;;;;35.08;27.25;;;5.10;99.90;;;;;;5075096;28;20040;-57
2022/04/17 03:17:39;;;;;;;35.17;26.30;;;5.20;99.90;;;;;;5074777;28;20037;-57
2022/04/17 03:20:05;;;;;;;33.72;27.52;;;5.20;99.90;;;;;;5073800;28;20044;-57
2022/04/17 03:22:34;;;;;;;32.30;26.10;;;5.10;99.90;;;;;;5073583;28;20543;-57
2022/04/17 03:25:01;;;;;;;37.13;27.65;;;5.10;99.90;;;;;;5074305;28;20037;-58
2022/04/17 03:27:28;;;;;;;36.33;28.00;;;5.10;99.90;;;;;;5074475;28;20119;-55
2022/04/17 03:29:54;;;;;;;36.35;28.52;;;5.10;99.90;;;;;;5074754;28;20043;-56
2022/04/17 03:32:20;;;;;;;35.17;27.52;;;5.10;99.90;;;;;;5074896;28;20405;-54
2022/04/17 03:34:46;;;;;;;33.47;28.20;;;5.10;99.90;;;;;;5074912;28;20032;-54
2022/04/17 03:37:14;;;;;;;35.97;28.20;;;5.10;99.90;;;;;;5074542;28;20565;-53
2022/04/17 03:39:40;;;;;;;36.75;28.67;;;5.10;99.90;;;;;;5074841;28;20049;-55
2022/04/17 03:42:06;;;;;;;34.13;26.88;;;5.10;99.90;;;;;;5074529;28;20463;-56
2022/04/17 03:44:33;;;;;;;39.45;29.95;;;5.00;99.90;;;;;;5074534;28;20041;-55
2022/04/17 03:46:59;;;;;;;37.13;28.15;;;5.00;99.90;;;;;;5074702;28;20033;-56
2022/04/17 03:49:24;;;;;;;34.63;26.92;;;5.00;99.90;;;;;;5074386;28;20481;-55
2022/04/17 03:51:50;;;;;;;40.25;29.73;;;5.00;99.90;;;;;;5070259;28;20120;-56
2022/04/17 03:54:16;;;;;;;34.47;28.20;;;4.90;99.90;;;;;;5054395;28;20647;-57
2022/04/17 03:56:43;;;;;;;40.85;28.98;;;4.90;99.90;;;;;;5054251;28;20120;-57
2022/04/17 03:59:09;;;;;;;38.05;29.02;;;4.90;99.90;;;;;;5054322;28;20045;-57
2022/04/17 04:01:35;;;;;;;36.63;29.70;;;4.90;99.90;;;;;;5054322;28;20041;-57
2022/04/17 04:04:01;;;;;;;39.40;30.70;;;4.90;99.90;;;;;;5054276;28;20501;-58
2022/04/17 04:06:27;;;;;;;39.92;29.70;;;4.90;99.90;;;;;;5054285;28;20460;-56
2022/04/17 04:08:53;;;;;;;38.03;30.67;;;4.80;99.90;;;;;;5053719;28;20044;-55
2022/04/17 04:11:19;;;;;;;39.08;29.55;;;4.80;99.90;;;;;;5053281;28;20040;-56
2022/04/17 04:13:45;;;;;;;36.75;28.55;;;4.80;99.90;;;;;;5054049;28;20496;-57
2022/04/17 04:16:12;;;;;;;38.38;29.60;;;4.80;99.90;;;;;;5054175;28;20389;-57
2022/04/17 04:18:37;;;;;;;38.20;29.15;;;4.80;99.90;;;;;;5052476;28;20036;-56
2022/04/17 04:21:03;;;;;;;38.40;28.95;;;4.70;99.90;;;;;;5053951;28;20132;-55
2022/04/17 04:23:33;;;;;;;38.83;28.67;;;4.70;99.90;;;;;;5053873;28;20420;-57
2022/04/17 04:25:59;;;;;;;37.75;28.17;;;4.70;99.90;;;;;;5035793;28;20036;-55
2022/04/17 04:28:36;;;;;;;40.08;28.58;;;4.60;99.90;;;;;;5053787;28;20048;-56
2022/04/17 04:31:11;;;;;;;33.40;26.70;;;4.70;99.90;;;;;;5053664;28;20056;-56
2022/04/17 04:33:40;;;;;;;33.47;26.25;;;4.60;99.90;;;;;;5053700;28;20136;-55
2022/04/17 04:36:11;;;;;;;33.05;25.27;;;4.50;99.90;;;;;;5053392;28;20402;-56
2022/04/17 04:38:37;;;;;;;33.13;24.00;;;4.60;99.90;;;;;;5052275;28;20041;-57
2022/04/17 04:41:04;;;;;;;30.27;23.52;;;4.60;99.90;;;;;;5053493;28;20098;-56
2022/04/17 04:43:29;;;;;;;27.60;20.63;;;4.60;99.90;;;;;;5052349;28;20095;-56
2022/04/17 04:46:07;;;;;;;29.38;20.25;;;4.60;99.90;;;;;;5053411;28;20505;-55
2022/04/17 04:51:26;;;;;;;25.40;18.60;;;4.60;99.90;;;;;;5053988;28;20048;-56
2022/04/17 04:53:52;;;;;;;27.13;19.27;;;4.70;99.90;;;;;;5055599;28;20403;-56
2022/04/17 04:56:19;;;;;;;26.38;17.20;;;4.70;99.90;;;;;;5073165;28;20040;-56
2022/04/17 04:58:45;;;;;;;23.52;16.80;;;4.70;99.90;;;;;;5073055;28;20036;-54
2022/04/17 05:01:12;;;;;;;21.40;15.48;;;4.80;99.90;;;;;;5073114;28;20170;-55
2022/04/17 05:03:38;;;;;;;24.42;16.30;;;4.80;99.90;;;;;;5072902;28;20113;-56
2022/04/17 05:06:03;;;;;;;21.05;15.15;;;4.80;99.90;;;;;;5073032;28;20485;-56
2022/04/17 05:08:29;;;;;;;20.95;15.20;;;4.90;99.90;;;;;;5072850;28;20076;-56
2022/04/17 05:10:55;;;;;;;25.02;15.82;;;4.90;99.90;;;;;;5072952;28;20040;-56
2022/04/17 05:13:21;;;;;;;21.20;15.45;;;4.90;99.90;;;;;;5072812;28;20611;-55
2022/04/17 05:15:47;;;;;;;23.33;15.27;;;5.00;99.90;;;;;;5072659;28;20032;-56
2022/04/17 05:18:12;;;;;;;22.98;16.00;;;5.00;99.90;;;;;;5072663;28;20440;-56
2022/04/17 05:20:38;;;;;;;19.58;14.80;;;5.00;99.90;;;;;;5072202;28;20036;-54
2022/04/17 05:23:17;;;;;;;21.02;15.55;;;5.10;99.90;;;;;;5066307;28;20120;-56
2022/04/17 05:25:44;;;;;;;21.40;15.95;;;5.20;99.90;;;;;;5052589;28;20048;-56
2022/04/17 05:28:10;;;;;;;21.02;14.43;;;5.20;99.90;;;;;;5052598;28;20045;-55
2022/04/17 05:30:35;;;;;;;22.90;15.38;;;5.20;99.90;;;;;;5051901;28;20405;-56
2022/04/17 05:33:01;;;;;;;19.85;14.85;;;5.30;99.90;;;;;;5051131;28;20040;-56
2022/04/17 05:35:27;;;;;;;21.92;13.93;;;5.30;99.90;;;;;;5049762;28;20130;-56
2022/04/17 05:37:52;;;;;;;20.02;13.68;;;5.40;99.90;;;;;;5066677;28;20436;-56
2022/04/17 05:40:18;;;;;;;21.38;13.93;;;5.40;99.90;;;;;;5051190;28;20087;-56
2022/04/17 05:42:44;;;;;;;18.17;13.07;;;5.50;99.90;;;;;;5051317;28;20060;-56
2022/04/17 05:45:10;;;;;;;20.20;14.07;;;5.60;99.90;;;;;;5050839;28;20087;-56
2022/04/17 05:47:36;;;;;;;18.83;12.27;;;5.70;99.90;;;;;;5050957;28;20036;-56
2022/04/17 05:50:02;;;;;;;19.38;12.85;;;5.80;99.90;;;;;;5050630;28;20049;-56
2022/04/17 05:52:28;;;;;;;19.75;10.73;;;5.80;99.90;;;;;;5049584;28;20175;-56
2022/04/17 05:54:54;;;;;;;16.08;10.13;;;5.90;99.90;;;;;;5050872;28;20036;-56
2022/04/17 05:57:19;;;;;;;15.27;9.98;;;6.00;99.90;;;;;;5051039;28;20351;-55
2022/04/17 05:59:46;;;;;;;15.93;10.25;;;6.00;99.90;;;;;;5050651;28;20474;-55
2022/04/17 06:02:15;;;;;;;14.75;10.68;;;6.10;99.90;;;;;;5050997;28;20072;-56
2022/04/17 06:04:41;;;;;;;19.17;10.38;;;6.30;99.90;;;;;;5050881;28;20067;-56
2022/04/17 06:07:09;;;;;;;13.85;8.73;;;6.30;99.90;;;;;;5050751;28;20524;-56
2022/04/17 06:09:35;;;;;;;14.90;9.27;;;6.40;99.90;;;;;;5050987;28;20120;-56
2022/04/17 06:12:00;;;;;;;14.95;10.35;;;6.50;99.90;;;;;;5050608;28;20041;-57
2022/04/17 06:14:26;;;;;;;15.18;9.52;;;6.60;99.90;;;;;;5050771;28;20043;-57
2022/04/17 06:16:52;;;;;;;14.20;9.13;;;6.70;99.90;;;;;;5050813;28;20032;-56
2022/04/17 06:19:18;;;;;;;12.68;8.98;;;6.80;99.90;;;;;;5050669;28;20399;-56
2022/04/17 06:21:43;;;;;;;14.48;9.30;;;6.90;99.90;;;;;;5050533;28;20041;-57
2022/04/17 06:24:09;;;;;;;13.52;9.48;;;7.00;99.90;;;;;;5050443;28;20076;-57
2022/04/17 06:26:35;;;;;;;13.63;8.80;;;7.10;99.90;;;;;;5049363;28;20509;-57
2022/04/17 06:29:05;;;;;;;14.68;9.20;;;7.20;99.90;;;;;;5050295;28;20257;-57
2022/04/17 06:31:31;;;;;;;16.08;9.95;;;7.20;99.90;;;;;;5050512;28;20080;-56
2022/04/17 06:33:57;;;;;;;16.23;9.15;;;7.30;99.90;;;;;;5053227;28;20044;-56
2022/04/17 06:36:23;;;;;;;14.38;8.90;;;7.30;99.90;;;;;;5054400;28;20053;-56
2022/04/17 06:38:49;;;;;;;14.13;9.27;;;7.40;99.90;;;;;;5054297;28;20048;-56
2022/04/17 06:41:14;;;;;;;14.38;9.35;;;7.50;99.90;;;;;;5054219;28;20044;-57
2022/04/17 06:43:40;;;;;;;12.50;8.57;;;7.50;99.90;;;;;;5054395;28;20052;-57
2022/04/17 06:46:05;;;;;;;13.60;9.27;;;7.60;99.90;;;;;;5054510;28;20037;-56
2022/04/17 06:48:31;;;;;;;15.60;9.70;;;7.70;99.90;;;;;;5054405;28;20366;-57
2022/04/17 06:50:57;;;;;;;13.38;8.55;;;7.70;99.90;;;;;;5054179;28;20377;-57
2022/04/17 06:53:23;;;;;;;15.65;9.48;;;7.80;99.90;;;;;;5069460;28;20040;-56
2022/04/17 06:55:50;;;;;;;15.93;9.30;;;7.90;99.90;;;;;;5073927;28;20051;-57
2022/04/17 06:58:17;;;;;;;14.90;9.23;;;7.90;99.90;;;;;;5074057;28;20396;-57
2022/04/17 07:00:43;;;;;;;14.18;9.73;;;8.10;99.90;;;;;;5072942;28;20060;-56
2022/04/17 07:03:09;;;;;;;13.57;8.63;;;8.10;99.90;;;;;;5072903;28;20048;-56
2022/04/17 07:05:34;;;;;;;15.75;9.23;;;8.20;99.90;;;;;;5074012;28;20090;-57
2022/04/17 07:08:03;;;;;;;14.00;9.20;;;8.40;99.90;;;;;;5073928;28;20544;-57
2022/04/17 07:10:30;;;;;;;14.38;9.15;;;8.50;99.90;;;;;;5073652;28;20083;-57
2022/04/17 07:12:56;;;;;;;15.63;8.93;;;8.50;99.90;;;;;;5073963;28;20052;-57
2022/04/17 07:15:25;;;;;;;15.68;9.77;;;8.50;99.90;;;;;;5073440;28;20116;-56
2022/04/17 07:17:52;;;;;;;15.32;8.27;;;8.70;99.90;;;;;;5073511;28;20124;-57
2022/04/17 07:20:19;;;;;;;15.13;9.30;;;8.90;99.90;;;;;;5073543;28;20041;-56
2022/04/17 07:22:45;;;;;;;12.23;8.13;;;9.00;99.90;;;;;;5069299;28;20041;-57
2022/04/17 07:25:12;;;;;;;14.20;8.70;;;9.10;99.90;;;;;;5052712;28;20617;-56
2022/04/17 07:27:42;;;;;;;13.15;8.10;;;9.20;99.90;;;;;;5053125;28;20033;-56
2022/04/17 07:30:13;;;;;;;12.70;8.68;;;9.20;99.90;;;;;;5053012;28;20547;-57
2022/04/17 07:32:43;;;;;;;13.57;8.38;;;9.30;99.90;;;;;;5052702;28;20041;-55
2022/04/17 07:35:10;;;;;;;14.27;8.77;;;9.40;99.90;;;;;;5067986;28;20500;-56
2022/04/17 07:37:37;;;;;;;12.18;8.07;;;9.50;99.90;;;;;;5052968;28;20133;-56
2022/04/17 07:40:15;;;;;;;14.75;8.60;;;9.60;99.90;;;;;;5044495;28;20055;-56
2022/04/17 07:42:42;;;;;;;13.63;8.70;;;9.50;99.90;;;;;;5044697;28;20487;-56
2022/04/17 07:45:08;;;;;;;13.48;8.75;;;9.80;99.90;;;;;;5040927;28;20033;-56
2022/04/17 07:47:34;;;;;;;11.98;8.43;;;9.60;99.90;;;;;;5043058;28;20076;-56
2022/04/17 07:50:00;;;;;;;15.38;8.85;;;9.70;99.90;;;;;;5033302;28;20041;-57
2022/04/17 07:52:26;;;;;;;13.38;8.73;;;9.80;99.90;;;;;;5049591;28;20136;-57
2022/04/17 07:54:52;;;;;;;13.25;8.50;;;10.00;99.90;;;;;;5072095;28;20532;-57
2022/04/17 07:57:17;;;;;;;12.73;8.18;;;10.00;99.90;;;;;;5071441;28;20063;-58
2022/04/17 07:59:43;;;;;;;16.05;9.05;;;10.20;99.90;;;;;;5072922;28;20405;-56
2022/04/17 08:02:22;;;;;;;13.77;8.52;;;10.20;99.90;;;;;;5072865;28;20056;-56
2022/04/17 08:04:50;;;;;;;12.38;8.32;;;10.30;99.90;;;;;;5054308;28;20048;-56
2022/04/17 08:07:16;;;;;;;11.10;8.20;;;10.30;99.90;;;;;;5073091;28;20409;-56
2022/04/17 08:09:41;;;;;;;13.68;8.23;;;10.50;99.90;;;;;;5072565;28;20550;-56
2022/04/17 08:12:07;;;;;;;12.35;7.97;;;10.50;99.90;;;;;;5072747;28;20041;-56
2022/04/17 08:14:33;;;;;;;12.63;8.45;;;10.50;99.90;;;;;;5072746;28;20071;-56
2022/04/17 08:16:58;;;;;;;14.38;8.40;;;10.70;99.90;;;;;;5071132;28;20132;-56
2022/04/17 08:19:24;;;;;;;13.38;8.98;;;10.80;99.90;;;;;;5072682;28;20044;-55
2022/04/17 08:21:51;;;;;;;12.48;8.55;;;10.80;99.90;;;;;;5073485;28;20039;-55
2022/04/17 08:24:18;;;;;;;12.68;8.52;;;10.70;99.90;;;;;;5057510;28;20057;-56
2022/04/17 08:26:44;;;;;;;13.38;9.50;;;10.70;99.90;;;;;;5053589;28;20493;-53
2022/04/17 08:29:10;;;;;;;12.95;8.18;;;10.90;99.90;;;;;;5053594;28;20251;-54
2022/04/17 08:31:35;;;;;;;12.85;7.85;;;11.00;99.90;;;;;;5052567;28;20433;-54
2022/04/17 08:34:02;;;;;;;14.02;7.90;;;11.10;99.90;;;;;;5054073;28;20152;-55
2022/04/17 08:36:27;;;;;;;11.98;7.47;;;11.20;99.90;;;;;;5053438;28;20056;-55
2022/04/17 08:38:53;;;;;;;13.40;8.75;;;11.30;99.90;;;;;;5053524;28;20036;-54
2022/04/17 08:41:20;;;;;;;12.75;7.72;;;11.20;99.90;;;;;;5053545;28;20421;-53
2022/04/17 08:43:46;;;;;;;12.00;7.88;;;11.30;99.90;;;;;;5053442;28;20052;-54
2022/04/17 08:46:12;;;;;;;13.13;8.25;;;11.30;99.90;;;;;;5068770;28;20520;-55
2022/04/17 08:48:38;;;;;;;12.85;8.15;;;11.40;99.90;;;;;;5052138;28;20076;-55
2022/04/17 08:51:05;;;;;;;11.35;8.10;;;11.50;99.90;;;;;;5053148;28;20033;-55
2022/04/17 08:53:34;;;;;;;13.18;6.75;;;11.40;99.90;;;;;;5071037;28;20446;-54
2022/04/17 08:56:00;;;;;;;11.57;6.70;;;11.60;99.90;;;;;;5072438;28;20469;-55
2022/04/17 08:58:26;;;;;;;13.45;7.88;;;11.70;99.90;;;;;;5072877;28;20032;-54
2022/04/17 09:00:52;;;;;;;13.63;7.65;;;11.70;99.90;;;;;;5072854;28;20119;-55
2022/04/17 09:03:18;;;;;;;11.73;6.85;;;11.90;99.90;;;;;;5072692;28;20576;-55
2022/04/17 09:05:44;;;;;;;13.25;7.72;;;12.00;99.90;;;;;;5072563;28;20072;-55
2022/04/17 09:08:17;;;;;;;12.93;6.97;;;12.00;99.90;;;;;;5072992;28;20040;-56
2022/04/17 09:10:54;;;;;;;11.65;7.93;;;12.20;99.90;;;;;;5072745;28;20044;-55
2022/04/17 09:13:27;;;;;;;12.82;7.85;;;12.20;99.90;;;;;;5072577;28;20079;-54
2022/04/17 09:15:54;;;;;;;10.77;6.55;;;12.30;99.90;;;;;;5072846;28;20097;-56
2022/04/17 09:18:19;;;;;;;11.23;6.68;;;12.30;99.90;;;;;;5072648;28;20050;-55
2022/04/17 09:20:46;;;;;;;9.88;6.03;;;12.30;99.30;;;;;;5072503;28;20056;-51
2022/04/17 09:23:12;;;;;;;10.05;6.20;;;12.20;97.70;;;;;;5063267;28;20054;-55
2022/04/17 09:25:38;;;;;;;11.65;6.45;;;12.30;98.70;;;;;;5052905;28;20041;-55
2022/04/17 09:28:06;;;;;;;10.02;6.53;;;12.30;98.30;;;;;;5052600;28;20041;-55
2022/04/17 09:30:39;;;;;;;9.70;5.78;;;12.40;99.00;;;;;;5067871;28;20552;-55
2022/04/17 09:33:09;;;;;;;10.70;6.50;;;12.50;97.90;;;;;;5051796;28;20133;-55
2022/04/17 09:35:35;;;;;;;10.52;6.28;;;12.40;97.90;;;;;;5052344;28;20045;-55
2022/04/17 09:38:06;;;;;;;10.70;6.07;;;12.30;97.40;;;;;;5051629;28;20495;-54
2022/04/17 09:40:33;;;;;;;11.68;5.80;;;12.50;96.90;;;;;;5051748;28;20091;-54
2022/04/17 09:43:15;;;;;;;10.18;6.57;;;12.60;97.60;;;;;;5052273;28;20033;-54
2022/04/17 09:45:59;;;;;;;10.63;6.82;;;12.60;97.10;;;;;;5052304;28;20036;-54
2022/04/17 09:48:29;;;;;;;10.88;6.28;;;12.70;97.50;;;;;;5052235;28;20044;-54
2022/04/17 09:50:55;;;;;;;10.80;6.70;;;12.80;96.80;;;;;;5050752;28;20045;-54
2022/04/17 09:53:30;;;;;;;10.65;6.18;;;12.80;97.10;;;;;;5068874;28;20032;-55
2022/04/17 09:56:11;;;;;;;10.40;5.78;;;13.00;96.50;;;;;;5070834;28;20046;-53
2022/04/17 09:58:48;;;;;;;9.85;6.13;;;12.90;95.60;;;;;;5070985;28;20534;-55
2022/04/17 10:01:16;;;;;;;8.60;5.03;;;13.00;94.90;;;;;;5071219;28;20045;-53
2022/04/17 10:03:42;;;;;;;10.38;6.47;;;13.20;95.80;;;;;;5071979;28;20473;-55
2022/04/17 10:06:11;;;;;;;8.80;5.35;;;13.10;92.70;;;;;;5072244;28;20045;-56
2022/04/17 10:08:39;;;;;;;10.52;6.60;;;13.10;94.00;;;;;;5071245;28;20048;-54
2022/04/17 10:11:04;;;;;;;9.30;6.15;;;13.20;93.80;;;;;;5072031;28;20044;-55
2022/04/17 10:13:31;;;;;;;10.82;5.68;;;13.30;94.40;;;;;;5072064;28;20077;-55
2022/04/17 10:15:59;;;;;;;9.63;6.18;;;13.40;94.20;;;;;;5071875;28;20040;-56
2022/04/17 10:18:27;;;;;;;9.75;5.30;;;13.50;93.80;;;;;;5070880;28;20040;-56
2022/04/17 10:20:55;;;;;;;9.35;5.40;;;13.40;92.00;;;;;;5072042;28;20044;-55
2022/04/17 10:23:26;;;;;;;10.10;5.85;;;13.30;91.90;;;;;;5062998;28;20045;-55
2022/04/17 10:25:56;;;;;;;10.45;5.55;;;13.50;92.20;;;;;;5051765;28;20037;-55
2022/04/17 10:28:24;;;;;;;10.23;6.00;;;13.50;91.30;;;;;;5051623;28;20053;-56
2022/04/17 10:31:14;;;;;;;10.00;6.10;;;13.50;91.80;;;;;;5050662;28;20171;-55
2022/04/17 10:34:06;;;;;;;9.77;5.85;;;13.60;92.40;;;;;;5051897;28;20037;-55
2022/04/17 10:36:59;;;;;;;8.98;5.57;;;13.70;91.60;;;;;;5051679;28;20057;-55
2022/04/17 10:39:31;;;;;;;9.77;5.95;;;13.80;91.90;;;;;;5051909;28;20130;-55
2022/04/17 10:41:58;;;;;;;9.43;5.82;;;14.10;92.40;;;;;;5051713;28;20045;-55
2022/04/17 10:44:28;;;;;;;10.05;5.68;;;14.00;91.10;;;;;;5051586;28;20084;-51
2022/04/17 10:46:54;;;;;;;10.70;6.10;;;14.10;90.30;;;;;;5067121;28;20501;-53
2022/04/17 10:49:22;;;;;;;9.18;5.05;;;14.00;90.70;;;;;;5067384;28;20147;-54
2022/04/17 10:51:55;;;;;;;9.90;5.38;;;14.20;90.70;;;;;;5054366;28;20175;-54
2022/04/17 10:54:21;;;;;;;10.30;6.18;;;14.20;90.30;;;;;;5071715;28;20098;-51
2022/04/17 10:56:56;;;;;;;9.57;5.72;;;14.30;88.40;;;;;;5070784;28;20166;-51
2022/04/17 10:59:29;;;;;;;10.20;5.63;;;14.30;88.80;;;;;;5071575;28;20491;-54
2022/04/17 11:02:22;;;;;;;9.18;5.30;;;14.40;87.30;;;;;;5071690;28;20090;-55
2022/04/17 11:04:54;;;;;;;10.65;6.28;;;14.50;88.90;;;;;;5071658;28;20075;-54
2022/04/17 11:07:29;;;;;;;11.07;5.78;;;14.50;88.40;;;;;;5071517;28;20098;-53
2022/04/17 11:10:07;;;;;;;10.23;6.20;;;14.50;88.10;;;;;;5071341;28;20048;-54
2022/04/17 11:12:46;;;;;;;8.15;5.45;;;14.60;85.90;;;;;;5071565;28;20131;-55
2022/04/17 11:15:11;;;;;;;9.93;5.40;;;14.70;85.60;;;;;;5070188;28;20431;-51
2022/04/17 11:17:39;;;;;;;11.15;5.65;;;14.70;86.50;;;;;;5071435;28;20037;-54
2022/04/17 11:20:07;;;;;;;7.40;4.15;;;14.90;84.70;;;;;;5073720;28;20032;-55
2022/04/17 11:22:34;;;;;;;7.50;4.35;;;15.00;83.10;;;;;;5071380;28;20048;-54
2022/04/17 11:25:02;;;;;;;11.30;5.03;;;15.20;76.40;;;;;;5054816;28;20078;-55
2022/04/17 11:27:51;;;;;;;10.20;5.10;;;15.10;77.50;;;;;;5054982;28;20132;-55
2022/04/17 11:30:17;;;;;;;7.82;4.82;;;15.10;78.50;;;;;;5054892;28;20098;-55
2022/04/17 11:32:49;;;;;;;8.48;4.32;;;15.20;80.30;;;;;;5054630;28;20037;-55
2022/04/17 11:35:20;;;;;;;7.45;4.13;;;15.40;77.60;;;;;;5053266;28;20041;-53
2022/04/17 11:38:02;;;;;;;8.80;4.60;;;15.30;77.20;;;;;;5054916;28;20436;-55
2022/04/17 11:40:31;;;;;;;7.75;4.13;;;15.40;74.10;;;;;;5055188;28;20271;-52
2022/04/17 11:43:05;;;;;;;8.27;4.60;;;15.40;74.80;;;;;;5054748;28;20112;-54
2022/04/17 11:45:31;;;;;;;8.07;4.47;;;15.70;76.90;;;;;;5054572;28;20037;-54
2022/04/17 11:48:07;;;;;;;11.70;6.82;;;15.70;77.40;;;;;;5054378;28;20086;-54
2022/04/17 11:50:33;;;;;;;8.75;5.10;;;15.80;78.00;;;;;;5054360;28;20059;-56
2022/04/17 11:53:02;;;;;;;8.38;5.30;;;15.60;77.30;;;;;;5066610;28;20040;-55
2022/04/17 11:55:38;;;;;;;9.75;5.22;;;15.70;75.50;;;;;;5073120;28;20503;-55
2022/04/17 11:58:09;;;;;;;10.00;5.57;;;15.70;76.30;;;;;;5074326;28;20059;-55
2022/04/17 12:00:34;;;;;;;8.77;5.05;;;15.60;71.40;;;;;;5074294;28;20546;-56
2022/04/17 12:03:05;;;;;;;10.82;5.70;;;15.60;75.50;;;;;;5074152;28;20045;-56
2022/04/17 12:05:33;;;;;;;8.90;5.55;;;15.80;76.20;;;;;;5074209;28;20388;-54
2022/04/17 12:08:17;;;;;;;8.88;5.45;;;16.00;77.90;;;;;;5074156;28;20047;-55
2022/04/17 12:10:43;;;;;;;11.18;5.88;;;15.90;76.80;;;;;;5073895;28;20044;-53
2022/04/17 12:13:13;;;;;;;11.15;6.30;;;16.00;78.00;;;;;;5074253;28;20044;-54
2022/04/17 12:15:39;;;;;;;9.95;5.32;;;16.10;78.30;;;;;;5072668;28;20045;-55
2022/04/17 12:18:05;;;;;;;9.30;5.32;;;16.00;76.50;;;;;;5074282;28;20115;-55
2022/04/17 12:20:30;;;;;;;9.25;5.53;;;16.00;74.50;;;;;;5073868;28;20384;-54
2022/04/17 12:22:56;;;;;;;9.23;5.65;;;16.00;75.20;;;;;;5073818;28;20048;-55
2022/04/17 12:25:26;;;;;;;9.98;5.88;;;16.30;75.50;;;;;;5074229;28;20443;-54
2022/04/17 12:27:54;;;;;;;9.10;5.60;;;16.10;73.90;;;;;;5073424;28;20072;-53
2022/04/17 12:30:20;;;;;;;9.02;5.53;;;16.20;75.10;;;;;;5073170;28;20086;-51
2022/04/17 12:32:47;;;;;;;9.75;5.88;;;16.10;74.30;;;;;;5073312;28;20048;-55
2022/04/17 12:35:24;;;;;;;8.35;5.43;;;16.20;75.10;;;;;;5073593;28;20044;-51
2022/04/17 12:37:50;;;;;;;9.95;5.10;;;16.30;76.30;;;;;;5073443;28;20086;-54
2022/04/17 12:40:21;;;;;;;9.27;5.28;;;16.50;76.20;;;;;;5073556;28;20039;-51
2022/04/17 12:42:48;;;;;;;8.63;5.20;;;16.60;74.30;;;;;;5073503;28;20051;-52
2022/04/17 12:45:27;;;;;;;9.57;5.22;;;16.50;71.30;;;;;;5055494;28;20048;-50
2022/04/17 12:48:05;;;;;;;8.75;4.18;;;16.50;72.50;;;;;;5073238;28;20097;-54
2022/04/17 12:50:31;;;;;;;9.15;4.28;;;16.60;70.10;;;;;;5073136;28;20044;-54
2022/04/17 12:52:58;;;;;;;8.93;4.97;;;16.60;72.30;;;;;;5059323;28;20045;-51
2022/04/17 12:55:31;;;;;;;10.30;5.50;;;16.70;71.80;;;;;;5051104;28;20048;-53